La Aurora Airport
MGGT : rendu visible

Aérodrome :











RETROUVEZ-NOUS SUR...

 
LOGIN :

S'inscrire | Disclaimer

   EN    FR    IT 

 









Légende :    VFR   VFR Marginal   IFR   IFR Intensif   IFR Très Intensif
Visi : 
Plafond : 
>= 8 km
>= 3000ft
5 à 8 km
1000 à 3000 ft
1500m à 5 km
500 à 1000 ft
800 à 1500m
200 à 500 ft
< 800m
< 200 ft
Symboles :   Orages  Brouillard  Fortes neiges  Fortes précipitations  Vent > 20 kt






- Altitude de l'aérodrome : 4952 ft
- Code IATA : GUA


MGGT - La Aurora

DERNIER METAR :
  • 121800Z 36014KT 9999 BKN014 19/16 Q1027 A3033

METARs EXPIRÉS :
  • 121720Z 36012KT 9999 BKN014
  • 121700Z 36016KT 7000 DZ BKN014 17/16 Q1028 A3036 BR
  • 121600Z 36012KT 6000 DZ SCT008 BKN012 17/16 Q1029 A3039 BR
  • 121530Z 36014KT 6000 DZ SCT008 BKN012 BR

TAF TAF MGGT
Valide du 12 à 18h jusqu'au 13 à 18h UTC


1218/1318 36018KT 9999 BKN018 OVC090 TX23/1220Z TN14/1312Z
PROB30
TEMPO 1220/1304 8000 DZ BKN014
BECMG 1302/1304 36014KT SCT014
BECMG 1314/1316 FEW018



MET'MAP, la Météo Aéronautique d'un coup d'oeil ! - Copyright ORBIFLY Décembre 2007 - Disclaimer

ORBIFLY MET'MAP TEAM :

Programmation & Développement : Alexandra Zaïnal
Sur une idée originale de : Baudouin d'Aumeries
Assistance à la programmation : Marc-Olivier Méhu
Soutien technique & logistique : Manuel Goepfert

Contact : metmap@orbifly.com




SOURCES & CREDITS :

   NOAA       Earth
Advisory